Allison, Pennsylvania
Current Conditions -  °F | °C
As of 6:19 AM on Tuesday 21 Oct 2014 (Local Time) from KMGW Reporting Station
Overcast Overcast  
Wind Chill: 53°   Ceiling: 1400
Heat Index: 53°   Visibility: 10mi
Dew Point: 47°   Wind: 5mph
Humidity: 80%   Direction: 220°SW
Pressure: 29.88"   Gusts: NA
Location:  39.99°N, 79.86°W
Report Text: KMGW 211019Z AUTO 22004KT 10SM BKN014 OVC024 12/08 A2988 RMK AO2 T01170083 TSNO
Loading
Personal Weather Stations






























Interactive Weather Map
Tropical Storm Tracking
New forecast layout! Learn more

10-Day Weather Forecast

Advertisements
Track Severe Weather on mobile